Verndale, Minnesota
Current Conditions -  °F | °C
As of 2:53 PM on Tuesday 21 Oct 2014 (Local Time) from KSAZ Reporting Station
NA  
Wind Chill: 55°   Ceiling: NA
Heat Index: 55°   Visibility: NA
Dew Point: 39°   Wind: 14mph
Humidity: 54%   Direction: 150°SSE
Pressure: 30.07"   Gusts: 17mph
Location:  46.4°N, 95.01°W
Report Text: KSAZ 211953Z AUTO 15012G15KT 13/04 A3007 RMK AO2 PM PWINO
Loading
Personal Weather Stations






























Interactive Weather Map
Tropical Storm Tracking
New forecast layout! Learn more

10-Day Weather Forecast

Advertisements
Track Severe Weather on mobile